Time;durP1;ratioP1;P1;durP2;ratioP2;P2;SDS_P1;SDS_P2;PMS_P1;PMS_P2;Temp;Humidity;BMP_temperature;BMP_pressure;BME280_temperature;BME280_humidity;BME280_pressure;Samples;Min_cycle;Max_cycle;Signal;HPM_P1;HPM_P2
2021/12/15 00:00:47;;;;;;;42.58;18.33;;;11.00;99.90;;;;;;5066140;28;20190;-73
2021/12/15 00:03:15;;;;;;;36.92;17.85;;;11.00;99.90;;;;;;5050118;28;20213;-72
2021/12/15 00:05:41;;;;;;;45.42;17.98;;;11.00;99.90;;;;;;5046568;28;20674;-73
2021/12/15 00:08:11;;;;;;;40.47;18.52;;;11.00;99.90;;;;;;5049917;28;20281;-74
2021/12/15 00:10:38;;;;;;;33.70;17.70;;;11.00;99.90;;;;;;5040806;28;20209;-71
2021/12/15 00:13:03;;;;;;;45.03;18.50;;;11.00;99.90;;;;;;5067889;28;20255;-71
2021/12/15 00:15:29;;;;;;;38.63;17.77;;;11.00;99.90;;;;;;5066633;28;20643;-72
2021/12/15 00:17:56;;;;;;;43.28;17.63;;;11.00;99.90;;;;;;5068089;28;20216;-72
2021/12/15 00:20:23;;;;;;;40.70;18.02;;;10.90;99.90;;;;;;5064475;28;20647;-73
2021/12/15 00:22:52;;;;;;;36.88;16.63;;;11.00;99.90;;;;;;5067866;28;20190;-73
2021/12/15 00:25:20;;;;;;;40.53;18.08;;;10.90;99.90;;;;;;5066852;28;21879;-73
2021/12/15 00:27:46;;;;;;;39.10;18.83;;;11.00;99.90;;;;;;5068316;28;20190;-71
2021/12/15 00:30:12;;;;;;;40.00;18.48;;;11.00;99.90;;;;;;5048790;28;20659;-73
2021/12/15 00:32:38;;;;;;;44.97;18.30;;;11.00;99.90;;;;;;5064904;28;20214;-73
2021/12/15 00:35:05;;;;;;;33.72;17.98;;;11.00;99.90;;;;;;5078885;28;20182;-71
2021/12/15 00:37:30;;;;;;;43.30;18.77;;;11.00;99.90;;;;;;5067865;28;20225;-74
2021/12/15 00:39:56;;;;;;;39.90;19.50;;;11.00;99.90;;;;;;5047407;28;20214;-71
2021/12/15 00:42:22;;;;;;;42.08;19.33;;;11.00;99.90;;;;;;5094847;28;20660;-71
2021/12/15 00:44:47;;;;;;;39.55;18.85;;;11.00;99.90;;;;;;5046631;28;20231;-73
2021/12/15 00:47:13;;;;;;;46.28;20.08;;;10.90;99.90;;;;;;5048339;28;20183;-72
2021/12/15 00:49:40;;;;;;;40.30;18.45;;;11.00;99.90;;;;;;5066252;28;20273;-72
2021/12/15 00:52:06;;;;;;;39.17;18.98;;;11.00;99.90;;;;;;5067741;28;20264;-71
2021/12/15 00:54:34;;;;;;;46.58;19.92;;;10.90;99.90;;;;;;5048845;28;20187;-72
2021/12/15 00:57:00;;;;;;;40.30;18.55;;;10.90;99.90;;;;;;5066316;28;20186;-72
2021/12/15 00:59:25;;;;;;;40.47;17.98;;;11.00;99.90;;;;;;5067843;28;20600;-72
2021/12/15 01:01:52;;;;;;;45.53;19.08;;;10.90;99.90;;;;;;5065706;28;20194;-72
2021/12/15 01:04:20;;;;;;;42.20;18.38;;;11.00;99.90;;;;;;5070792;28;20178;-71
2021/12/15 01:06:51;;;;;;;38.30;18.45;;;10.90;99.90;;;;;;5077050;28;20190;-72
2021/12/15 01:09:21;;;;;;;42.90;18.85;;;11.00;99.90;;;;;;5052997;28;20667;-72
2021/12/15 01:20:19;;;;;;;44.58;17.83;;;11.00;99.90;;;;;;5052177;28;20186;-72
2021/12/15 01:22:49;;;;;;;47.20;18.30;;;11.00;99.90;;;;;;5051663;28;20343;-73
2021/12/15 01:25:25;;;;;;;43.00;18.50;;;11.00;99.90;;;;;;5068104;28;20183;-73
2021/12/15 01:27:52;;;;;;;41.70;17.63;;;10.90;99.90;;;;;;5067227;28;20897;-72
2021/12/15 01:30:21;;;;;;;38.15;17.17;;;10.90;99.90;;;;;;5071723;28;20197;-73
2021/12/15 01:32:48;;;;;;;50.10;17.83;;;11.00;99.90;;;;;;5070381;28;20258;-72
2021/12/15 01:35:14;;;;;;;39.63;17.52;;;11.00;99.90;;;;;;5061209;28;20200;-73
2021/12/15 01:37:40;;;;;;;42.97;18.33;;;11.00;99.90;;;;;;5069785;28;20174;-73
2021/12/15 01:40:12;;;;;;;44.42;18.00;;;11.00;99.90;;;;;;5069556;28;20188;-75
2021/12/15 01:42:37;;;;;;;41.50;17.20;;;10.90;99.90;;;;;;5051438;28;20708;-73
2021/12/15 01:48:06;;;;;;;51.33;18.73;;;10.90;99.90;;;;;;5070449;28;20188;-74
2021/12/15 01:50:32;;;;;;;39.42;17.75;;;10.90;99.90;;;;;;5050909;28;20201;-73
2021/12/15 01:52:58;;;;;;;39.90;16.65;;;10.90;99.90;;;;;;5051427;28;20533;-73
2021/12/15 01:55:25;;;;;;;50.53;17.92;;;11.00;99.90;;;;;;5055502;28;20206;-74
2021/12/15 01:57:51;;;;;;;37.67;16.92;;;10.90;99.90;;;;;;5050531;28;20179;-73
2021/12/15 02:00:30;;;;;;;47.20;17.83;;;11.00;99.90;;;;;;5051043;28;20635;-74
2021/12/15 02:02:57;;;;;;;45.92;17.27;;;10.90;99.90;;;;;;5068679;28;20195;-73
2021/12/15 02:05:25;;;;;;;40.45;18.67;;;11.00;99.90;;;;;;5049871;28;20399;-73
2021/12/15 02:07:52;;;;;;;41.90;18.23;;;11.40;99.90;;;;;;5048830;28;20456;-71
2021/12/15 02:10:21;;;;;;;42.15;17.63;;;11.80;99.90;;;;;;5067200;28;20439;-72
2021/12/15 02:12:48;;;;;;;39.73;17.10;;;12.00;99.90;;;;;;5061004;28;20423;-73
2021/12/15 02:15:17;;;;;;;38.60;16.27;;;12.10;99.90;;;;;;5048927;28;20418;-72
2021/12/15 02:17:44;;;;;;;40.58;17.33;;;12.10;99.90;;;;;;5050418;28;20404;-73
2021/12/15 02:20:18;;;;;;;38.78;16.20;;;12.20;99.90;;;;;;5048420;28;20423;-73
2021/12/15 02:22:44;;;;;;;38.13;16.90;;;12.20;99.90;;;;;;5084454;28;20405;-72
2021/12/15 02:25:14;;;;;;;38.47;16.42;;;12.30;99.90;;;;;;5040604;28;20541;-73
2021/12/15 02:27:40;;;;;;;38.10;15.87;;;12.30;99.90;;;;;;5050523;28;20403;-73
2021/12/15 02:30:26;;;;;;;39.83;15.53;;;12.30;99.90;;;;;;5067245;28;20573;-73
2021/12/15 02:33:12;;;;;;;33.78;15.73;;;12.40;99.90;;;;;;5032217;28;20442;-73
2021/12/15 02:38:33;;;;;;;37.28;14.90;;;12.40;99.90;;;;;;5047580;28;20400;-73
2021/12/15 02:41:07;;;;;;;33.63;14.47;;;12.40;99.90;;;;;;5049671;28;20469;-73
2021/12/15 02:43:33;;;;;;;37.17;14.98;;;12.40;99.90;;;;;;5049840;28;20986;-73
2021/12/15 02:45:59;;;;;;;35.28;15.45;;;12.40;99.90;;;;;;5067811;28;20981;-73
2021/12/15 02:48:25;;;;;;;37.40;16.50;;;12.40;99.90;;;;;;5052549;28;20412;-73
2021/12/15 02:50:51;;;;;;;41.10;16.83;;;12.40;99.90;;;;;;5048453;28;20404;-73
2021/12/15 02:53:17;;;;;;;38.15;17.35;;;12.40;99.90;;;;;;5072726;28;20513;-72
2021/12/15 02:55:43;;;;;;;34.67;16.85;;;12.50;99.90;;;;;;5066989;28;20985;-73
2021/12/15 02:58:09;;;;;;;31.60;16.43;;;12.50;99.90;;;;;;5067989;28;20412;-72
2021/12/15 03:00:48;;;;;;;36.22;17.30;;;12.40;99.90;;;;;;5072063;28;20465;-73
2021/12/15 03:06:07;;;;;;;35.30;17.42;;;12.50;99.90;;;;;;5065739;28;20835;-73
2021/12/15 03:16:42;;;;;;;39.33;18.25;;;12.50;99.90;;;;;;5065847;28;20434;-74
2021/12/15 03:19:08;;;;;;;37.50;18.20;;;12.50;99.90;;;;;;5074503;28;20415;-73
2021/12/15 03:21:34;;;;;;;38.53;18.85;;;12.40;99.90;;;;;;5063937;28;20466;-74
2021/12/15 03:24:08;;;;;;;41.22;19.67;;;12.40;99.90;;;;;;5066130;28;21229;-73
2021/12/15 03:26:41;;;;;;;40.67;19.27;;;12.40;99.90;;;;;;5063843;28;20426;-72
2021/12/15 03:37:22;;;;;;;45.00;20.97;;;12.40;99.90;;;;;;5051809;28;20412;-72
2021/12/15 03:39:51;;;;;;;44.05;20.13;;;12.30;99.90;;;;;;5047397;28;20419;-73
2021/12/15 03:42:21;;;;;;;43.22;21.05;;;12.40;99.90;;;;;;5039639;28;20921;-73
2021/12/15 03:44:48;;;;;;;43.67;19.58;;;12.30;99.90;;;;;;5030190;28;20419;-73
2021/12/15 03:47:24;;;;;;;45.70;20.15;;;12.30;99.90;;;;;;5074222;28;20841;-73
2021/12/15 03:49:53;;;;;;;46.65;21.67;;;12.30;99.90;;;;;;5047328;28;20746;-73
2021/12/15 03:52:19;;;;;;;45.90;21.50;;;12.30;99.90;;;;;;5066759;28;20415;-74
2021/12/15 03:54:45;;;;;;;46.10;22.55;;;12.30;99.90;;;;;;5066580;28;20453;-73
2021/12/15 03:57:11;;;;;;;45.67;21.75;;;12.30;99.90;;;;;;5070798;28;21072;-73
2021/12/15 03:59:41;;;;;;;45.17;21.90;;;12.30;99.90;;;;;;5047643;28;20407;-71
2021/12/15 04:02:08;;;;;;;43.00;20.48;;;12.30;99.90;;;;;;5066605;28;20454;-73
2021/12/15 04:04:34;;;;;;;50.25;22.38;;;12.30;99.90;;;;;;5065587;28;20968;-74
2021/12/15 04:06:59;;;;;;;52.47;21.73;;;12.20;99.90;;;;;;5077374;28;20395;-73
2021/12/15 04:09:25;;;;;;;46.50;21.58;;;12.30;99.90;;;;;;5058107;28;20400;-72
2021/12/15 04:11:52;;;;;;;48.27;20.80;;;12.30;99.90;;;;;;5064565;28;20412;-73
2021/12/15 04:14:21;;;;;;;45.33;20.35;;;12.20;99.90;;;;;;5066812;28;20465;-73
2021/12/15 04:17:06;;;;;;;45.85;20.10;;;12.20;99.90;;;;;;5064928;28;20490;-74
2021/12/15 04:19:35;;;;;;;46.58;19.98;;;12.20;99.90;;;;;;5065309;28;20461;-72
2021/12/15 04:22:03;;;;;;;43.90;20.17;;;12.20;99.90;;;;;;5063239;28;20510;-72
2021/12/15 04:24:29;;;;;;;43.73;20.13;;;12.20;99.90;;;;;;5048570;28;20408;-72
2021/12/15 04:26:58;;;;;;;42.92;19.83;;;12.20;99.90;;;;;;5047525;28;20400;-72
2021/12/15 04:29:27;;;;;;;45.03;20.40;;;12.20;99.90;;;;;;5066712;28;20527;-72
2021/12/15 04:32:05;;;;;;;45.93;20.43;;;12.20;99.90;;;;;;5048400;28;20417;-72
2021/12/15 04:34:31;;;;;;;44.05;19.42;;;12.30;99.90;;;;;;5046580;28;20883;-71
2021/12/15 04:36:56;;;;;;;43.92;18.83;;;12.20;99.90;;;;;;5048914;28;20498;-71
2021/12/15 04:39:25;;;;;;;43.13;18.73;;;12.20;99.90;;;;;;5069992;28;20415;-71
2021/12/15 04:41:53;;;;;;;43.83;17.17;;;12.30;99.90;;;;;;5067269;28;20434;-72
2021/12/15 04:44:23;;;;;;;44.85;17.67;;;12.30;99.90;;;;;;5048497;28;20397;-72
2021/12/15 04:47:03;;;;;;;38.65;17.60;;;12.30;99.90;;;;;;5064323;28;20419;-72
2021/12/15 04:49:32;;;;;;;42.70;18.27;;;12.30;99.90;;;;;;5048186;28;20809;-72
2021/12/15 04:51:58;;;;;;;42.80;18.23;;;12.30;99.90;;;;;;5047812;28;20415;-73
2021/12/15 04:54:25;;;;;;;46.75;18.30;;;12.30;99.90;;;;;;5049291;28;20495;-73
2021/12/15 04:56:51;;;;;;;48.50;19.75;;;12.20;99.90;;;;;;5060658;28;20499;-73
2021/12/15 04:59:18;;;;;;;44.55;19.17;;;12.20;99.90;;;;;;5049406;28;21060;-74
2021/12/15 05:01:45;;;;;;;44.25;19.67;;;12.20;99.90;;;;;;5060479;28;20452;-72
2021/12/15 05:04:11;;;;;;;40.42;18.23;;;12.20;99.90;;;;;;5068724;28;20415;-73
2021/12/15 05:06:36;;;;;;;44.70;18.23;;;12.20;99.90;;;;;;5042764;28;20419;-72
2021/12/15 05:09:04;;;;;;;42.50;18.10;;;12.20;99.90;;;;;;5059656;28;20980;-74
2021/12/15 05:11:31;;;;;;;39.53;18.30;;;12.20;99.90;;;;;;5026895;28;20538;-71
2021/12/15 05:13:56;;;;;;;39.70;18.50;;;12.20;99.90;;;;;;5066293;28;20407;-71
2021/12/15 05:16:22;;;;;;;48.00;19.03;;;12.20;99.90;;;;;;5047343;28;20927;-71
2021/12/15 05:18:49;;;;;;;46.22;18.50;;;12.20;99.90;;;;;;5050711;28;20404;-72
2021/12/15 05:21:16;;;;;;;43.13;18.40;;;12.20;99.90;;;;;;5058779;28;20407;-70
2021/12/15 05:23:45;;;;;;;40.40;18.02;;;12.20;99.90;;;;;;5069097;28;20444;-70
2021/12/15 05:26:11;;;;;;;45.15;18.55;;;12.20;99.90;;;;;;5062709;28;20762;-71
2021/12/15 05:28:37;;;;;;;43.88;17.55;;;12.20;99.90;;;;;;5065256;28;20423;-70
2021/12/15 05:31:03;;;;;;;42.23;17.30;;;12.20;99.90;;;;;;5045206;28;21150;-71
2021/12/15 05:33:29;;;;;;;45.80;17.42;;;12.20;99.90;;;;;;5064612;28;20467;-70
2021/12/15 05:35:56;;;;;;;42.07;16.90;;;12.20;99.90;;;;;;5043491;28;20777;-70
2021/12/15 05:38:23;;;;;;;39.17;17.08;;;12.20;99.90;;;;;;5067595;28;20411;-71
2021/12/15 05:40:50;;;;;;;40.80;17.48;;;12.20;99.90;;;;;;5063554;28;20503;-72
2021/12/15 05:43:15;;;;;;;38.38;16.60;;;12.20;99.90;;;;;;5068286;28;20460;-71
2021/12/15 05:45:42;;;;;;;39.10;16.55;;;12.30;99.90;;;;;;5048901;28;20426;-72
2021/12/15 05:48:11;;;;;;;39.42;16.20;;;12.20;99.90;;;;;;5067817;28;20814;-71
2021/12/15 05:50:38;;;;;;;43.20;16.80;;;12.30;99.90;;;;;;5067194;28;20490;-70
2021/12/15 05:53:04;;;;;;;37.90;17.07;;;12.20;99.90;;;;;;5051053;28;20430;-71
2021/12/15 05:55:30;;;;;;;40.30;15.57;;;12.20;99.90;;;;;;5067416;28;20407;-71
2021/12/15 05:57:56;;;;;;;36.55;15.15;;;12.30;99.90;;;;;;5068075;28;20510;-71
2021/12/15 06:00:27;;;;;;;36.50;14.50;;;12.20;99.90;;;;;;5065455;28;20465;-70
2021/12/15 06:02:54;;;;;;;35.80;15.00;;;12.30;99.90;;;;;;5048617;28;20403;-72
2021/12/15 06:05:20;;;;;;;36.97;14.70;;;12.30;99.90;;;;;;5050899;28;20510;-71
2021/12/15 06:07:47;;;;;;;38.13;14.30;;;12.30;99.90;;;;;;5050437;28;20411;-72
2021/12/15 06:10:18;;;;;;;34.63;14.60;;;12.30;99.90;;;;;;5067703;28;20423;-72
2021/12/15 06:12:47;;;;;;;38.97;15.10;;;12.30;99.90;;;;;;5050339;28;20423;-71
2021/12/15 06:15:14;;;;;;;38.58;14.38;;;12.30;99.90;;;;;;5048018;28;20415;-69
2021/12/15 06:17:40;;;;;;;34.38;14.60;;;12.30;99.90;;;;;;5061656;28;20473;-71
2021/12/15 06:20:06;;;;;;;35.03;15.40;;;12.30;99.90;;;;;;5078875;28;20863;-71
2021/12/15 06:22:33;;;;;;;36.00;15.50;;;12.30;99.90;;;;;;5068090;28;20424;-70
2021/12/15 06:24:59;;;;;;;46.58;16.42;;;12.30;99.90;;;;;;5068770;28;20416;-70
2021/12/15 06:27:28;;;;;;;38.80;16.35;;;12.30;99.90;;;;;;5066521;28;20993;-70
2021/12/15 06:29:54;;;;;;;36.38;15.48;;;12.30;99.90;;;;;;5049252;28;20426;-70
2021/12/15 06:32:21;;;;;;;39.37;16.87;;;12.30;99.90;;;;;;5066328;28;20423;-70
2021/12/15 06:34:47;;;;;;;38.42;16.58;;;12.30;99.90;;;;;;5066941;28;20502;-71
2021/12/15 06:37:13;;;;;;;37.10;16.25;;;12.30;99.90;;;;;;5069378;28;20821;-72
2021/12/15 06:39:39;;;;;;;37.97;16.03;;;12.30;99.90;;;;;;5057255;28;20533;-71
2021/12/15 06:42:05;;;;;;;41.20;16.23;;;12.30;99.90;;;;;;5065268;28;20537;-70
2021/12/15 06:44:33;;;;;;;42.27;16.70;;;12.20;99.90;;;;;;5046832;28;20443;-70
2021/12/15 07:00:48;;;;;;;38.07;16.80;;;12.30;99.90;;;;;;5061543;28;20394;-71
2021/12/15 07:03:16;;;;;;;38.80;16.92;;;12.30;99.90;;;;;;5046195;28;20408;-71
2021/12/15 07:05:41;;;;;;;36.92;15.55;;;12.30;99.90;;;;;;5059509;28;20429;-70
2021/12/15 07:08:10;;;;;;;40.65;16.80;;;12.30;99.90;;;;;;5054946;28;20477;-70
2021/12/15 07:10:38;;;;;;;38.78;16.42;;;12.30;99.90;;;;;;5057122;28;20461;-70
2021/12/15 07:13:05;;;;;;;41.40;16.58;;;12.30;99.90;;;;;;5045575;28;20422;-71
2021/12/15 07:15:33;;;;;;;42.30;16.83;;;12.30;99.90;;;;;;5063565;28;20904;-71
2021/12/15 07:18:03;;;;;;;37.13;16.48;;;12.30;99.90;;;;;;5062808;28;20490;-70
2021/12/15 07:20:38;;;;;;;39.45;16.45;;;12.30;99.90;;;;;;5061630;28;20416;-70
2021/12/15 07:23:09;;;;;;;41.03;16.25;;;12.30;99.90;;;;;;5028583;28;20464;-71
2021/12/15 07:25:36;;;;;;;46.15;18.13;;;12.30;99.90;;;;;;5065544;28;20764;-70
2021/12/15 07:28:02;;;;;;;46.47;18.27;;;12.30;99.90;;;;;;5064147;28;20411;-70
2021/12/15 07:30:28;;;;;;;43.17;17.00;;;12.30;99.90;;;;;;5047785;28;20396;-70
2021/12/15 07:32:54;;;;;;;43.13;16.60;;;12.40;99.90;;;;;;5065097;28;20776;-70
2021/12/15 07:35:21;;;;;;;42.58;17.05;;;12.40;99.90;;;;;;5062706;28;20420;-68
2021/12/15 07:37:47;;;;;;;40.70;17.27;;;12.40;99.90;;;;;;5061988;28;20411;-68
2021/12/15 07:40:20;;;;;;;46.00;18.03;;;12.30;99.90;;;;;;5057974;28;20411;-69
2021/12/15 07:43:24;;;;;;;43.25;18.45;;;12.30;99.90;;;;;;5046460;28;20405;-69
2021/12/15 07:45:51;;;;;;;44.00;17.75;;;12.30;99.90;;;;;;5028582;28;20418;-70
2021/12/15 07:48:19;;;;;;;42.53;18.08;;;12.30;99.90;;;;;;5045828;28;20420;-72
2021/12/15 07:50:49;;;;;;;42.28;16.85;;;12.40;99.90;;;;;;5058284;28;20468;-69
2021/12/15 07:53:16;;;;;;;40.33;15.80;;;12.40;99.90;;;;;;5026946;28;20425;-70
2021/12/15 07:55:42;;;;;;;42.75;17.10;;;12.30;99.90;;;;;;5043026;28;20397;-70
2021/12/15 07:58:09;;;;;;;45.97;17.08;;;12.30;99.90;;;;;;5046127;28;20470;-70
2021/12/15 08:00:39;;;;;;;43.38;17.73;;;12.30;99.90;;;;;;5045722;28;20405;-71
2021/12/15 08:03:06;;;;;;;45.58;17.30;;;12.30;99.90;;;;;;5051333;28;20500;-70
2021/12/15 08:05:31;;;;;;;42.45;17.08;;;12.30;99.90;;;;;;5047736;28;20429;-68
2021/12/15 08:07:57;;;;;;;42.53;16.73;;;12.30;99.90;;;;;;5045811;28;20439;-71
2021/12/15 08:10:23;;;;;;;36.77;16.37;;;12.30;99.90;;;;;;5045547;28;20886;-70
2021/12/15 08:12:49;;;;;;;40.90;17.15;;;12.20;99.90;;;;;;5046324;28;20425;-69
2021/12/15 08:15:17;;;;;;;42.40;16.13;;;12.20;99.90;;;;;;5053626;28;20488;-70
2021/12/15 08:17:48;;;;;;;36.75;15.77;;;12.20;99.90;;;;;;5035484;28;20393;-73
2021/12/15 08:20:14;;;;;;;39.15;15.30;;;12.30;99.90;;;;;;5045794;28;20414;-73
2021/12/15 08:22:41;;;;;;;32.58;15.48;;;12.30;99.90;;;;;;5049570;28;20936;-72
2021/12/15 08:25:08;;;;;;;36.65;14.40;;;12.30;99.90;;;;;;5047198;28;20409;-72
2021/12/15 08:27:34;;;;;;;41.85;15.25;;;12.30;99.90;;;;;;5051079;28;20489;-72
2021/12/15 08:29:59;;;;;;;40.97;14.88;;;12.30;99.90;;;;;;5045310;28;20435;-73
2021/12/15 08:32:25;;;;;;;39.67;13.88;;;12.30;99.90;;;;;;5039087;28;20421;-72
2021/12/15 08:34:51;;;;;;;37.10;13.90;;;12.30;99.90;;;;;;5059389;28;20596;-73
2021/12/15 08:37:17;;;;;;;35.45;13.32;;;12.30;99.90;;;;;;5052284;28;20526;-73
2021/12/15 08:39:44;;;;;;;39.53;12.97;;;12.30;99.90;;;;;;5030495;28;20419;-73
2021/12/15 08:42:11;;;;;;;29.10;11.00;;;12.40;99.90;;;;;;5067670;28;20426;-72
2021/12/15 08:44:37;;;;;;;30.10;12.48;;;12.40;99.90;;;;;;5070695;28;20395;-74
2021/12/15 08:47:04;;;;;;;35.10;12.32;;;12.40;99.90;;;;;;5072099;28;20663;-72
2021/12/15 08:49:30;;;;;;;30.63;10.70;;;12.40;99.90;;;;;;5085058;28;20415;-72
2021/12/15 08:51:55;;;;;;;29.50;10.57;;;12.40;99.90;;;;;;5062178;28;20956;-73
2021/12/15 08:54:22;;;;;;;27.70;10.30;;;12.40;99.90;;;;;;5072022;28;20407;-71
2021/12/15 08:56:50;;;;;;;26.75;10.05;;;12.40;99.90;;;;;;5068842;28;20433;-73
2021/12/15 08:59:16;;;;;;;27.48;9.98;;;12.40;99.90;;;;;;5069770;28;20888;-73
2021/12/15 09:01:43;;;;;;;30.05;9.48;;;12.40;99.90;;;;;;5074897;28;20436;-73
2021/12/15 09:04:09;;;;;;;30.23;9.43;;;12.50;99.90;;;;;;5076503;28;20439;-73
2021/12/15 09:06:36;;;;;;;29.73;8.88;;;12.50;99.90;;;;;;5072534;28;20410;-73
2021/12/15 09:09:08;;;;;;;28.55;9.10;;;12.50;99.90;;;;;;5072195;28;20518;-72
2021/12/15 09:11:33;;;;;;;28.10;9.10;;;12.50;99.90;;;;;;5069755;28;20903;-73
2021/12/15 09:14:00;;;;;;;24.10;8.38;;;12.50;99.90;;;;;;5052348;28;20482;-72
2021/12/15 09:16:27;;;;;;;25.17;8.33;;;12.50;99.90;;;;;;5083348;28;20886;-72
2021/12/15 09:18:55;;;;;;;30.52;8.45;;;12.50;99.90;;;;;;5055492;28;21020;-72
2021/12/15 09:21:24;;;;;;;28.27;8.30;;;12.50;99.90;;;;;;5081977;28;20765;-72
2021/12/15 09:23:50;;;;;;;26.85;7.68;;;12.60;99.90;;;;;;5075077;28;20410;-73
2021/12/15 09:26:16;;;;;;;21.57;7.63;;;12.60;99.90;;;;;;5059151;28;20409;-72
2021/12/15 09:28:42;;;;;;;24.55;7.60;;;12.60;99.90;;;;;;5073206;28;20403;-69
2021/12/15 09:31:09;;;;;;;28.02;8.07;;;12.60;99.90;;;;;;5058599;28;20508;-71
2021/12/15 09:33:36;;;;;;;25.20;7.88;;;12.60;99.90;;;;;;5075479;28;20423;-71
2021/12/15 09:36:03;;;;;;;23.83;6.97;;;12.60;99.90;;;;;;5057299;28;20751;-70
2021/12/15 09:38:30;;;;;;;24.48;7.40;;;12.60;99.90;;;;;;5069608;28;20395;-74
2021/12/15 09:40:59;;;;;;;22.80;6.70;;;12.60;99.90;;;;;;5070315;28;20454;-72
2021/12/15 09:43:27;;;;;;;23.52;5.97;;;12.70;99.90;;;;;;5064192;28;20422;-71
2021/12/15 09:46:02;;;;;;;22.27;6.07;;;12.70;99.90;;;;;;5064463;28;20423;-72
2021/12/15 10:02:29;;;;;;;16.42;4.60;;;12.80;99.90;;;;;;5067859;28;20407;-71
2021/12/15 10:18:48;;;;;;;18.27;5.03;;;12.90;99.90;;;;;;5066222;28;20482;-71
2021/12/15 10:21:27;;;;;;;17.38;4.45;;;12.90;99.90;;;;;;5055705;28;20926;-72
2021/12/15 10:23:54;;;;;;;16.60;4.53;;;12.90;99.90;;;;;;5064725;28;20403;-72
2021/12/15 10:26:23;;;;;;;14.98;4.15;;;12.90;99.90;;;;;;5042425;28;20420;-72
2021/12/15 10:28:52;;;;;;;16.85;4.22;;;12.90;99.90;;;;;;5060016;28;20784;-72
2021/12/15 10:31:24;;;;;;;17.75;4.45;;;12.90;99.90;;;;;;5056309;28;20406;-71
2021/12/15 10:33:53;;;;;;;18.47;4.47;;;12.90;99.90;;;;;;5066398;28;20407;-75
2021/12/15 10:36:26;;;;;;;16.33;4.00;;;12.90;99.90;;;;;;5044339;28;20478;-72
2021/12/15 10:39:02;;;;;;;16.27;3.90;;;12.90;99.90;;;;;;5067468;28;20404;-72
2021/12/15 10:41:37;;;;;;;12.63;3.42;;;12.90;99.90;;;;;;5043742;28;20427;-71
2021/12/15 10:44:13;;;;;;;14.80;3.50;;;12.90;99.90;;;;;;5075984;28;20462;-71
2021/12/15 10:47:06;;;;;;;20.95;3.92;;;12.90;99.90;;;;;;5070449;28;21126;-71
2021/12/15 10:49:37;;;;;;;15.98;3.47;;;13.00;99.90;;;;;;5065546;28;20415;-73
2021/12/15 10:52:07;;;;;;;19.13;4.05;;;13.00;99.90;;;;;;5070996;28;20753;-71
2021/12/15 10:54:50;;;;;;;17.85;3.80;;;13.00;99.90;;;;;;5070110;28;20799;-72
2021/12/15 10:57:29;;;;;;;16.30;3.92;;;13.10;99.90;;;;;;5106951;27;20407;-72
2021/12/15 10:59:55;;;;;;;19.50;4.13;;;13.00;99.90;;;;;;5070114;28;20916;-72
2021/12/15 11:02:28;;;;;;;16.77;3.50;;;13.10;99.90;;;;;;5080036;28;20408;-72
2021/12/15 11:05:06;;;;;;;21.55;3.80;;;13.10;99.90;;;;;;5071226;28;20436;-72
2021/12/15 11:07:35;;;;;;;14.18;3.80;;;13.10;99.90;;;;;;5068761;28;20415;-70
2021/12/15 11:10:27;;;;;;;15.32;3.20;;;13.10;99.90;;;;;;5079105;28;20461;-71
2021/12/15 11:13:13;;;;;;;10.00;2.70;;;13.10;99.90;;;;;;5071891;28;20430;-70
2021/12/15 11:15:49;;;;;;;13.00;2.47;;;13.10;99.90;;;;;;5067198;28;20454;-70
2021/12/15 11:18:21;;;;;;;11.65;2.63;;;13.10;99.90;;;;;;5074015;28;20875;-71
2021/12/15 11:20:50;;;;;;;12.88;2.67;;;13.10;99.90;;;;;;5063236;28;20442;-70
2021/12/15 11:23:18;;;;;;;8.02;2.10;;;13.10;99.90;;;;;;5067579;28;20909;-70
2021/12/15 11:25:51;;;;;;;11.93;2.90;;;13.10;99.90;;;;;;5066327;28;20418;-70
2021/12/15 11:28:40;;;;;;;9.00;2.30;;;13.10;99.90;;;;;;5074693;28;21091;-71
2021/12/15 11:31:11;;;;;;;9.65;2.75;;;13.10;99.90;;;;;;5066118;28;20507;-70
2021/12/15 11:33:45;;;;;;;10.50;2.50;;;13.10;99.90;;;;;;5069199;28;20930;-70
2021/12/15 11:36:33;;;;;;;8.55;1.70;;;13.10;99.80;;;;;;5069573;28;20421;-71
2021/12/15 11:39:07;;;;;;;8.68;2.05;;;13.10;99.30;;;;;;5067771;28;20442;-70
2021/12/15 11:41:40;;;;;;;6.28;2.00;;;13.20;99.10;;;;;;5065228;28;20892;-71
2021/12/15 11:44:22;;;;;;;7.70;1.75;;;13.20;98.90;;;;;;5049206;28;20483;-71
2021/12/15 11:46:58;;;;;;;5.93;1.73;;;13.30;98.60;;;;;;5044448;28;20419;-70
2021/12/15 11:49:29;;;;;;;9.15;1.90;;;13.30;98.20;;;;;;5059312;28;20417;-71
2021/12/15 11:52:04;;;;;;;9.20;1.83;;;13.30;98.10;;;;;;5044852;28;20465;-72
2021/12/15 11:54:37;;;;;;;10.02;1.80;;;13.30;98.00;;;;;;5064001;28;20420;-70
2021/12/15 11:57:07;;;;;;;9.15;1.83;;;13.40;97.70;;;;;;5063464;28;20433;-70
2021/12/15 11:59:43;;;;;;;10.00;1.70;;;13.40;97.50;;;;;;5065411;28;20401;-70
2021/12/15 12:02:18;;;;;;;7.47;1.80;;;13.40;97.40;;;;;;5063639;28;20509;-70
2021/12/15 12:05:01;;;;;;;6.60;1.60;;;13.40;97.40;;;;;;5059625;28;20477;-70
2021/12/15 12:07:29;;;;;;;5.30;1.50;;;13.40;97.20;;;;;;5065472;28;21089;-71
2021/12/15 12:10:18;;;;;;;7.90;2.00;;;13.30;97.30;;;;;;5060084;28;20905;-70
2021/12/15 12:12:52;;;;;;;8.25;1.70;;;13.40;97.40;;;;;;5046377;28;20422;-71
2021/12/15 12:15:25;;;;;;;10.13;1.88;;;13.30;97.60;;;;;;5061794;28;20447;-70
2021/12/15 12:17:56;;;;;;;9.47;1.63;;;13.40;98.10;;;;;;5064295;28;20407;-70
2021/12/15 12:20:27;;;;;;;10.07;1.90;;;13.40;98.30;;;;;;5057813;28;20403;-70
2021/12/15 12:22:55;;;;;;;7.78;1.83;;;13.40;98.60;;;;;;5040686;28;20806;-71
2021/12/15 12:25:24;;;;;;;9.32;1.63;;;13.40;98.60;;;;;;5061042;28;20971;-71
2021/12/15 12:27:51;;;;;;;7.25;1.48;;;13.30;98.40;;;;;;5062880;28;20928;-72
2021/12/15 12:30:23;;;;;;;8.37;1.90;;;13.30;98.20;;;;;;5058075;28;20421;-70
2021/12/15 12:32:49;;;;;;;12.82;2.03;;;13.30;98.30;;;;;;5066449;28;20498;-72
2021/12/15 12:35:24;;;;;;;8.70;1.52;;;13.40;98.20;;;;;;5062147;28;20414;-72
2021/12/15 12:37:53;;;;;;;10.05;1.92;;;13.40;97.80;;;;;;5065389;28;20552;-73
2021/12/15 12:40:23;;;;;;;8.45;1.90;;;13.40;97.70;;;;;;5060983;28;20473;-71
2021/12/15 12:42:49;;;;;;;11.00;1.70;;;13.40;97.30;;;;;;5057316;28;20415;-68
2021/12/15 12:45:38;;;;;;;8.03;1.60;;;13.50;97.30;;;;;;5054282;28;20411;-70
2021/12/15 12:48:37;;;;;;;10.57;2.03;;;13.40;97.40;;;;;;5056322;28;20416;-71
2021/12/15 12:59:40;;;;;;;8.00;1.55;;;13.50;96.60;;;;;;5058351;28;20415;-71
2021/12/15 13:02:36;;;;;;;9.75;1.70;;;13.50;96.90;;;;;;5049304;28;20408;-71
2021/12/15 13:05:02;;;;;;;8.98;1.80;;;13.50;96.90;;;;;;5031145;28;20425;-70
2021/12/15 13:07:48;;;;;;;8.02;1.45;;;13.50;97.00;;;;;;5057226;28;20418;-70
2021/12/15 13:10:16;;;;;;;10.23;1.45;;;13.50;96.90;;;;;;5029538;28;20844;-71
2021/12/15 13:12:47;;;;;;;9.00;1.77;;;13.50;96.90;;;;;;5050033;28;20422;-70
2021/12/15 13:15:18;;;;;;;7.03;1.60;;;13.50;97.00;;;;;;5047174;28;20420;-71
2021/12/15 13:18:01;;;;;;;9.13;1.63;;;13.40;97.30;;;;;;5049923;28;20494;-71
2021/12/15 13:20:30;;;;;;;10.13;1.90;;;13.50;97.50;;;;;;5046753;28;20412;-71
2021/12/15 13:23:30;;;;;;;10.55;2.20;;;13.50;97.70;;;;;;5047121;28;20766;-71
2021/12/15 13:28:47;;;;;;;10.43;2.28;;;13.50;98.00;;;;;;5048798;28;20447;-72
2021/12/15 13:31:26;;;;;;;8.57;2.10;;;13.50;98.10;;;;;;5053818;28;20460;-73
2021/12/15 13:33:57;;;;;;;11.20;2.40;;;13.50;98.30;;;;;;5054928;28;20492;-73
2021/12/15 13:36:24;;;;;;;10.68;2.70;;;13.50;98.50;;;;;;5047323;28;20503;-72
2021/12/15 13:39:02;;;;;;;12.50;3.20;;;13.40;98.70;;;;;;5063901;28;20453;-73
2021/12/15 13:41:40;;;;;;;15.05;2.67;;;13.50;98.90;;;;;;5056648;28;20431;-73
2021/12/15 13:44:37;;;;;;;13.63;3.03;;;13.40;99.00;;;;;;5069019;28;20822;-73
2021/12/15 13:47:09;;;;;;;11.93;2.53;;;13.50;99.10;;;;;;5068376;28;20846;-71
2021/12/15 13:49:43;;;;;;;14.95;3.13;;;13.40;99.20;;;;;;5049334;28;20430;-71
2021/12/15 13:52:14;;;;;;;10.60;2.70;;;13.40;99.50;;;;;;5067579;28;20427;-71
2021/12/15 13:54:40;;;;;;;13.70;3.00;;;13.50;99.70;;;;;;5048943;28;20482;-71
2021/12/15 13:57:11;;;;;;;12.27;2.90;;;13.50;99.80;;;;;;5069635;28;20960;-72
2021/12/15 14:00:08;;;;;;;13.07;3.10;;;13.50;99.80;;;;;;5049980;28;20434;-72
2021/12/15 14:02:42;;;;;;;12.00;3.00;;;13.50;99.80;;;;;;5067327;28;20399;-72
2021/12/15 14:05:16;;;;;;;11.90;3.38;;;13.40;99.90;;;;;;5073350;28;20895;-72
2021/12/15 14:07:46;;;;;;;14.27;3.30;;;13.40;99.90;;;;;;5069079;28;20402;-72
2021/12/15 14:10:17;;;;;;;14.32;3.75;;;13.40;99.90;;;;;;5047389;28;20411;-71